Time;durP1;ratioP1;P1;durP2;ratioP2;P2;SDS_P1;SDS_P2;PMS_P1;PMS_P2;Temp;Humidity;BMP_temperature;BMP_pressure;BME280_temperature;BME280_humidity;BME280_pressure;Samples;Min_cycle;Max_cycle;Signal;HPM_P1;HPM_P2
2021/03/10 00:00:30;;;;;;;66.87;35.63;;;-5.30;90.00;;;;;;5038044;28;20474;-83
2021/03/10 00:03:08;;;;;;;66.80;34.87;;;-5.30;90.60;;;;;;5043674;28;20456;-83
2021/03/10 00:05:35;;;;;;;68.50;34.47;;;-5.20;91.00;;;;;;5048508;28;20474;-81
2021/03/10 00:08:04;;;;;;;61.83;34.53;;;-5.30;90.20;;;;;;5041205;28;20496;-81
2021/03/10 00:10:32;;;;;;;67.67;34.27;;;-5.40;90.30;;;;;;5041433;28;20470;-81
2021/03/10 00:13:01;;;;;;;64.30;33.77;;;-5.50;90.50;;;;;;5039455;28;20459;-80
2021/03/10 00:15:29;;;;;;;59.57;32.43;;;-5.50;90.70;;;;;;5035385;28;20818;-80
2021/03/10 00:17:57;;;;;;;63.77;32.83;;;-5.50;91.00;;;;;;5032051;28;20461;-81
2021/03/10 00:20:25;;;;;;;70.33;35.93;;;-5.40;91.60;;;;;;5026981;28;20469;-81
2021/03/10 00:22:53;;;;;;;68.23;33.73;;;-5.30;91.80;;;;;;5027267;28;20481;-83
2021/03/10 00:25:21;;;;;;;63.60;34.03;;;-5.40;91.50;;;;;;5018937;28;20515;-80
2021/03/10 00:27:49;;;;;;;68.33;34.60;;;-5.40;91.20;;;;;;5030759;28;20832;-83
2021/03/10 00:30:17;;;;;;;61.37;34.40;;;-5.40;91.60;;;;;;5028226;28;20473;-80
2021/03/10 00:32:45;;;;;;;66.83;35.60;;;-5.40;91.50;;;;;;5029867;28;20490;-82
2021/03/10 00:35:31;;;;;;;69.17;36.23;;;-5.50;91.50;;;;;;5026371;28;20450;-81
2021/03/10 00:38:00;;;;;;;73.53;41.10;;;-5.50;91.70;;;;;;5033383;28;20509;-82
2021/03/10 00:40:28;;;;;;;82.10;44.13;;;-5.40;91.80;;;;;;5019907;28;20465;-81
2021/03/10 00:42:57;;;;;;;82.23;41.63;;;-5.50;91.80;;;;;;5024803;28;20476;-82
2021/03/10 00:45:24;;;;;;;68.43;37.93;;;-5.60;91.80;;;;;;5014487;28;20514;-82
2021/03/10 00:47:56;;;;;;;74.87;39.10;;;-5.60;92.20;;;;;;5026186;28;20898;-83
2021/03/10 00:50:26;;;;;;;75.13;37.87;;;-5.50;92.30;;;;;;5021938;28;20489;-83
2021/03/10 00:52:55;;;;;;;76.10;38.93;;;-5.60;92.10;;;;;;5027570;28;20469;-82
2021/03/10 00:55:23;;;;;;;77.20;38.53;;;-5.70;92.20;;;;;;5038178;28;20484;-82
2021/03/10 00:57:50;;;;;;;68.73;40.40;;;-5.80;92.30;;;;;;5039859;28;21024;-82
2021/03/10 01:00:20;;;;;;;74.70;40.37;;;-5.90;92.50;;;;;;5028101;28;20505;-82
2021/03/10 01:02:48;;;;;;;87.00;42.20;;;-6.00;92.90;;;;;;5027614;28;20484;-79
2021/03/10 01:05:17;;;;;;;74.07;41.03;;;-5.90;93.20;;;;;;5026255;28;20561;-84
2021/03/10 01:07:45;;;;;;;75.20;42.10;;;-5.90;93.50;;;;;;5026272;28;20498;-80
2021/03/10 01:10:14;;;;;;;78.20;39.80;;;-5.90;93.60;;;;;;5020574;28;20744;-81
2021/03/10 01:12:42;;;;;;;80.90;40.87;;;-5.90;93.90;;;;;;5024363;28;20524;-82
2021/03/10 01:15:13;;;;;;;80.10;41.67;;;-5.90;94.00;;;;;;5032449;28;20470;-81
2021/03/10 01:17:41;;;;;;;86.97;43.27;;;-5.90;93.90;;;;;;5027257;28;20831;-81
2021/03/10 01:20:11;;;;;;;82.60;44.33;;;-6.00;93.90;;;;;;5013267;28;21049;-82
2021/03/10 01:22:39;;;;;;;92.93;47.83;;;-6.00;94.10;;;;;;5023965;28;20888;-82
2021/03/10 01:25:09;;;;;;;94.27;45.87;;;-6.00;94.30;;;;;;5034142;28;20467;-79
2021/03/10 01:27:38;;;;;;;92.10;45.10;;;-6.00;94.30;;;;;;5036066;28;20477;-81
2021/03/10 01:30:09;;;;;;;91.07;42.70;;;-6.00;94.20;;;;;;5029041;28;20909;-80
2021/03/10 01:32:37;;;;;;;83.97;43.43;;;-6.10;94.10;;;;;;5024784;28;20528;-82
2021/03/10 01:35:07;;;;;;;89.13;46.80;;;-6.10;94.70;;;;;;5026776;28;20468;-81
2021/03/10 01:37:38;;;;;;;93.87;45.47;;;-6.00;94.80;;;;;;5028014;28;20455;-83
2021/03/10 01:40:08;;;;;;;88.03;47.43;;;-6.00;94.70;;;;;;5026474;28;20470;-82
2021/03/10 01:42:36;;;;;;;89.60;46.30;;;-6.00;94.20;;;;;;5022275;28;20499;-79
2021/03/10 01:45:06;;;;;;;88.57;46.13;;;-6.10;94.10;;;;;;5027762;28;20478;-82
2021/03/10 01:47:34;;;;;;;98.27;49.23;;;-6.10;94.50;;;;;;5017844;28;21008;-82
2021/03/10 01:50:04;;;;;;;85.53;46.00;;;-6.10;94.60;;;;;;5031610;28;20450;-81
2021/03/10 01:52:33;;;;;;;83.07;46.27;;;-6.10;94.60;;;;;;5043579;28;20433;-81
2021/03/10 01:55:01;;;;;;;90.87;46.40;;;-6.10;95.20;;;;;;5044860;28;20460;-81
2021/03/10 01:57:29;;;;;;;98.03;49.67;;;-6.00;95.30;;;;;;5038569;28;20536;-82
2021/03/10 01:59:57;;;;;;;86.10;43.93;;;-6.00;95.20;;;;;;5026520;28;20476;-82
2021/03/10 02:02:26;;;;;;;90.13;47.07;;;-6.00;95.10;;;;;;5028075;28;20465;-83
2021/03/10 02:04:53;;;;;;;91.40;48.53;;;-5.90;95.30;;;;;;5016820;28;20489;-82
2021/03/10 02:07:26;;;;;;;88.47;47.70;;;-5.90;95.20;;;;;;5030657;28;20487;-80
2021/03/10 02:10:03;;;;;;;97.40;46.90;;;-5.90;95.10;;;;;;5029633;28;20877;-81
2021/03/10 02:12:41;;;;;;;96.10;47.87;;;-5.90;95.20;;;;;;5029715;28;20462;-83
2021/03/10 02:15:13;;;;;;;95.30;46.63;;;-5.80;94.90;;;;;;5040430;28;20454;-80
2021/03/10 02:17:49;;;;;;;95.13;47.77;;;-5.90;94.80;;;;;;5028610;28;20467;-80
2021/03/10 02:20:33;;;;;;;96.37;48.20;;;-5.80;94.80;;;;;;5032582;28;20546;-81
2021/03/10 02:23:12;;;;;;;94.53;48.50;;;-6.10;94.90;;;;;;5015135;28;20448;-81
2021/03/10 02:26:05;;;;;;;96.50;47.77;;;-6.00;95.00;;;;;;5039551;28;20732;-84
2021/03/10 02:28:36;;;;;;;90.43;47.10;;;-6.00;95.30;;;;;;5039296;28;20468;-83
2021/03/10 02:31:07;;;;;;;97.57;49.03;;;-6.00;95.50;;;;;;5043614;28;21096;-80
2021/03/10 02:33:38;;;;;;;95.43;51.23;;;-6.00;95.90;;;;;;5039884;28;20461;-82
2021/03/10 02:36:12;;;;;;;88.23;47.93;;;-5.90;95.50;;;;;;5035765;28;20452;-81
2021/03/10 02:38:43;;;;;;;94.80;48.07;;;-6.00;95.30;;;;;;5030289;28;20467;-83
2021/03/10 02:41:12;;;;;;;94.30;47.47;;;-5.90;95.50;;;;;;5036703;28;20470;-82
2021/03/10 02:43:44;;;;;;;87.17;46.00;;;-5.90;95.60;;;;;;5037669;28;20528;-83
2021/03/10 02:46:13;;;;;;;90.20;50.07;;;-5.80;95.60;;;;;;5043209;28;20490;-80
2021/03/10 02:48:44;;;;;;;90.73;45.43;;;-5.90;95.20;;;;;;5046729;28;20487;-81
2021/03/10 02:51:15;;;;;;;88.50;44.77;;;-5.90;95.00;;;;;;5038194;28;21077;-81
2021/03/10 02:53:44;;;;;;;88.67;46.77;;;-6.00;95.10;;;;;;5044907;28;20458;-81
2021/03/10 02:56:12;;;;;;;90.07;44.60;;;-5.90;95.60;;;;;;5041293;28;20825;-83
2021/03/10 02:58:42;;;;;;;95.93;44.10;;;-5.90;95.60;;;;;;5029797;28;20901;-81
2021/03/10 03:01:11;;;;;;;86.53;45.20;;;-5.90;95.30;;;;;;5024243;28;20713;-82
2021/03/10 03:03:40;;;;;;;83.63;44.17;;;-6.00;95.00;;;;;;5033159;28;20461;-82
2021/03/10 03:06:07;;;;;;;89.63;45.23;;;-6.00;95.20;;;;;;5040698;28;20607;-82
2021/03/10 03:08:36;;;;;;;95.97;46.97;;;-6.10;95.70;;;;;;5039453;28;20637;-82
2021/03/10 03:11:05;;;;;;;89.33;46.47;;;-5.90;96.10;;;;;;5034442;28;20755;-82
2021/03/10 03:13:35;;;;;;;80.30;43.53;;;-6.00;95.80;;;;;;5033994;28;20474;-82
2021/03/10 03:16:05;;;;;;;91.47;44.03;;;-6.00;96.10;;;;;;5030985;28;20466;-82
2021/03/10 03:18:33;;;;;;;86.73;45.73;;;-6.10;95.90;;;;;;5047232;28;20450;-83
2021/03/10 03:21:02;;;;;;;80.60;44.97;;;-6.10;95.90;;;;;;5046418;28;20498;-81
2021/03/10 03:23:31;;;;;;;93.17;47.30;;;-6.20;95.70;;;;;;5046492;28;20463;-81
2021/03/10 03:26:01;;;;;;;92.80;45.03;;;-6.20;96.00;;;;;;5037089;28;20497;-82
2021/03/10 03:28:30;;;;;;;94.97;47.63;;;-6.20;96.20;;;;;;5045923;28;20483;-81
2021/03/10 03:30:58;;;;;;;97.43;52.20;;;-6.20;96.60;;;;;;5047136;28;20749;-83
2021/03/10 03:33:29;;;;;;;93.47;49.40;;;-6.20;96.40;;;;;;5044765;28;20457;-82
2021/03/10 03:35:58;;;;;;;97.57;50.50;;;-6.30;96.00;;;;;;5047977;28;20476;-81
2021/03/10 03:38:30;;;;;;;89.87;46.13;;;-6.40;96.10;;;;;;5048648;28;20480;-82
2021/03/10 03:40:58;;;;;;;90.17;46.87;;;-6.50;96.00;;;;;;5041376;28;20626;-81
2021/03/10 03:43:27;;;;;;;91.03;48.90;;;-6.50;96.60;;;;;;5046077;28;20480;-82
2021/03/10 03:45:55;;;;;;;99.73;54.73;;;-6.40;97.30;;;;;;5041076;28;20446;-83
2021/03/10 03:48:23;;;;;;;102.33;51.30;;;-6.40;97.30;;;;;;5049520;28;20486;-82
2021/03/10 03:50:53;;;;;;;91.40;50.13;;;-6.40;97.30;;;;;;5040876;28;20470;-81
2021/03/10 03:53:21;;;;;;;84.17;46.17;;;-6.40;97.80;;;;;;5038522;28;20472;-82
2021/03/10 03:55:49;;;;;;;82.33;47.03;;;-6.40;97.70;;;;;;5038340;28;20496;-81
2021/03/10 03:58:16;;;;;;;91.13;46.03;;;-6.40;97.70;;;;;;5038663;28;20472;-81
2021/03/10 04:00:44;;;;;;;88.67;44.40;;;-6.40;97.70;;;;;;5042756;28;20892;-81
2021/03/10 04:03:13;;;;;;;88.60;46.80;;;-6.40;97.80;;;;;;5033161;28;20464;-82
2021/03/10 04:05:41;;;;;;;92.77;46.77;;;-6.40;98.00;;;;;;5033025;28;20474;-82
2021/03/10 04:08:11;;;;;;;92.37;47.77;;;-6.50;97.80;;;;;;5032545;28;20495;-82
2021/03/10 04:10:40;;;;;;;94.40;47.43;;;-6.50;98.10;;;;;;5032599;28;20723;-82
2021/03/10 04:13:08;;;;;;;86.60;45.17;;;-6.40;98.30;;;;;;5033928;28;20535;-83
2021/03/10 04:15:37;;;;;;;87.73;45.83;;;-6.40;98.30;;;;;;5030669;28;20464;-81
2021/03/10 04:18:05;;;;;;;94.30;48.03;;;-6.50;98.00;;;;;;5029544;28;20458;-83
2021/03/10 04:20:33;;;;;;;81.93;44.53;;;-6.50;97.70;;;;;;5034045;28;20466;-83
2021/03/10 04:23:01;;;;;;;87.33;44.40;;;-6.50;98.20;;;;;;5031035;28;20474;-84
2021/03/10 04:25:30;;;;;;;80.83;44.67;;;-6.50;98.00;;;;;;5032799;28;20901;-81
2021/03/10 04:27:58;;;;;;;81.93;43.43;;;-6.50;98.20;;;;;;5037917;28;20485;-82
2021/03/10 04:30:30;;;;;;;93.03;44.57;;;-6.60;98.00;;;;;;5037301;28;20458;-82
2021/03/10 04:32:58;;;;;;;85.53;46.67;;;-6.60;98.00;;;;;;5032486;28;20472;-82
2021/03/10 04:35:26;;;;;;;88.40;44.03;;;-6.60;97.70;;;;;;5043015;28;20474;-81
2021/03/10 04:37:54;;;;;;;85.37;43.40;;;-6.70;97.70;;;;;;5046905;28;20468;-82
2021/03/10 04:40:22;;;;;;;87.57;44.67;;;-6.60;98.40;;;;;;5032957;28;20467;-83
2021/03/10 04:42:52;;;;;;;84.33;43.60;;;-6.60;99.00;;;;;;5038206;28;20473;-81
2021/03/10 04:45:21;;;;;;;84.97;44.40;;;-6.50;99.30;;;;;;5036493;28;20468;-84
2021/03/10 04:47:49;;;;;;;87.13;45.33;;;-6.50;99.20;;;;;;5035864;28;20828;-82
2021/03/10 04:50:17;;;;;;;82.93;41.73;;;-6.50;98.70;;;;;;5039454;28;20462;-81
2021/03/10 04:52:46;;;;;;;82.63;43.80;;;-6.50;99.00;;;;;;5036460;28;20494;-83
2021/03/10 04:55:14;;;;;;;81.20;42.60;;;-6.50;98.80;;;;;;5020131;28;21103;-82
2021/03/10 04:57:42;;;;;;;89.77;45.47;;;-6.30;99.10;;;;;;5033860;28;20452;-80
2021/03/10 05:00:13;;;;;;;86.40;46.63;;;-6.30;99.10;;;;;;5032616;28;20521;-82
2021/03/10 05:02:42;;;;;;;85.73;47.03;;;-6.40;98.90;;;;;;5034569;28;20858;-82
2021/03/10 05:05:12;;;;;;;81.80;44.53;;;-6.40;98.80;;;;;;5031669;28;20489;-84
2021/03/10 05:07:45;;;;;;;95.43;48.63;;;-6.40;98.70;;;;;;5031414;28;20987;-84
2021/03/10 05:10:15;;;;;;;87.53;49.67;;;-6.40;98.70;;;;;;5042297;28;20489;-82
2021/03/10 05:12:44;;;;;;;89.47;47.23;;;-6.40;98.50;;;;;;5031711;28;20866;-83
2021/03/10 05:15:14;;;;;;;89.50;44.57;;;-6.50;98.40;;;;;;5039264;28;20462;-81
2021/03/10 05:17:42;;;;;;;88.10;44.17;;;-6.50;98.50;;;;;;5034002;28;20518;-81
2021/03/10 05:20:12;;;;;;;90.80;45.47;;;-6.40;99.00;;;;;;5041406;28;20461;-82
2021/03/10 05:22:40;;;;;;;80.83;45.17;;;-6.40;99.00;;;;;;5028970;28;20464;-82
2021/03/10 05:25:10;;;;;;;88.03;44.30;;;-6.40;99.00;;;;;;5043832;28;20530;-82
2021/03/10 05:27:38;;;;;;;89.30;44.27;;;-6.30;99.10;;;;;;5047941;28;20543;-82
2021/03/10 05:30:09;;;;;;;86.73;44.20;;;-6.20;98.80;;;;;;5031153;28;20445;-84
2021/03/10 05:32:39;;;;;;;82.57;45.03;;;-6.20;98.70;;;;;;5048663;28;20460;-83
2021/03/10 05:35:09;;;;;;;87.23;44.97;;;-6.20;98.90;;;;;;5044311;28;20957;-83
2021/03/10 05:37:43;;;;;;;77.37;42.50;;;-6.10;99.40;;;;;;5029021;28;20467;-82
2021/03/10 05:40:14;;;;;;;89.57;45.37;;;-6.00;99.50;;;;;;5042289;28;20481;-82
2021/03/10 05:42:43;;;;;;;82.87;43.73;;;-5.90;99.40;;;;;;5037711;28;20535;-82
2021/03/10 05:45:17;;;;;;;80.17;44.13;;;-5.80;98.80;;;;;;5038063;28;20481;-83
2021/03/10 05:47:46;;;;;;;76.93;41.83;;;-5.80;98.70;;;;;;5040346;28;20471;-81
2021/03/10 05:50:16;;;;;;;81.23;42.20;;;-5.70;99.00;;;;;;5028836;28;20550;-82
2021/03/10 05:52:44;;;;;;;76.57;43.97;;;-5.60;99.40;;;;;;5040170;28;20464;-83
2021/03/10 05:55:14;;;;;;;78.43;42.47;;;-5.50;99.40;;;;;;5042289;28;20531;-82
2021/03/10 05:57:43;;;;;;;78.27;42.80;;;-5.30;99.00;;;;;;5038996;28;20535;-82
2021/03/10 06:00:14;;;;;;;88.63;42.77;;;-5.10;98.50;;;;;;5038645;28;20528;-83
2021/03/10 06:02:42;;;;;;;76.23;42.10;;;-5.10;97.40;;;;;;5043200;28;20550;-80
2021/03/10 06:05:24;;;;;;;81.00;42.27;;;-5.00;97.30;;;;;;5019673;28;20480;-81
2021/03/10 06:08:02;;;;;;;78.53;42.90;;;-4.90;97.80;;;;;;5019479;28;20942;-82
2021/03/10 06:10:40;;;;;;;76.00;41.00;;;-4.70;98.70;;;;;;5021575;28;20268;-81
2021/03/10 06:13:21;;;;;;;74.80;40.70;;;-4.50;99.30;;;;;;5023297;28;20216;-81
2021/03/10 06:15:50;;;;;;;71.37;39.53;;;-4.30;99.90;;;;;;5020523;28;20266;-80
2021/03/10 06:18:29;;;;;;;72.70;38.33;;;-3.80;99.90;;;;;;5021309;28;20200;-80
2021/03/10 06:21:08;;;;;;;66.70;38.80;;;-3.80;99.90;;;;;;5019232;28;20201;-80
2021/03/10 06:23:36;;;;;;;66.87;37.07;;;-3.60;99.90;;;;;;5018241;28;20202;-81
2021/03/10 06:26:18;;;;;;;67.80;37.17;;;-3.40;99.90;;;;;;5014622;28;20607;-80
2021/03/10 06:28:46;;;;;;;62.80;34.33;;;-3.20;99.10;;;;;;5015903;28;20234;-81
2021/03/10 06:31:22;;;;;;;58.93;34.43;;;-3.10;98.80;;;;;;5012721;28;20833;-82
2021/03/10 06:34:01;;;;;;;57.00;33.83;;;-2.80;98.30;;;;;;5013447;28;20257;-82
2021/03/10 06:36:33;;;;;;;57.13;34.43;;;-2.60;95.60;;;;;;5015152;28;20207;-81
2021/03/10 06:39:02;;;;;;;62.03;32.87;;;-2.30;94.80;;;;;;5013190;28;20560;-81
2021/03/10 06:41:32;;;;;;;61.60;32.90;;;-2.10;92.90;;;;;;5009690;28;20208;-79
2021/03/10 06:44:00;;;;;;;58.57;33.23;;;-2.00;91.50;;;;;;5019178;28;20206;-80
2021/03/10 06:46:29;;;;;;;55.40;31.87;;;-1.70;90.90;;;;;;5034190;28;20198;-80
2021/03/10 06:48:59;;;;;;;53.17;32.57;;;-1.70;90.30;;;;;;5034766;28;20235;-79
2021/03/10 06:51:28;;;;;;;56.43;32.40;;;-1.60;88.70;;;;;;5025539;28;20637;-79
2021/03/10 06:53:58;;;;;;;62.97;31.93;;;-1.50;88.20;;;;;;5028349;28;20322;-81
2021/03/10 06:56:28;;;;;;;61.80;33.00;;;-1.40;86.50;;;;;;5035545;28;20203;-81
2021/03/10 06:58:58;;;;;;;56.33;32.30;;;-1.40;84.90;;;;;;5022363;28;20335;-81
2021/03/10 07:01:28;;;;;;;59.17;32.43;;;-1.40;85.00;;;;;;5022754;28;20213;-80
2021/03/10 07:03:57;;;;;;;58.33;33.70;;;-1.10;84.60;;;;;;5008915;28;20207;-81
2021/03/10 07:06:25;;;;;;;52.30;32.23;;;-1.10;83.90;;;;;;5009562;28;20227;-82
2021/03/10 07:08:55;;;;;;;67.03;33.80;;;-1.00;83.60;;;;;;5010882;28;20729;-81
2021/03/10 07:11:24;;;;;;;57.17;32.37;;;-1.00;82.90;;;;;;5014675;28;20217;-81
2021/03/10 07:13:56;;;;;;;55.50;33.37;;;-1.00;83.00;;;;;;5015522;28;20224;-81
2021/03/10 07:16:26;;;;;;;65.03;33.37;;;-1.10;83.20;;;;;;5027397;28;20202;-81
2021/03/10 07:18:54;;;;;;;59.23;33.10;;;-1.10;83.10;;;;;;5022648;28;20209;-80
2021/03/10 07:21:30;;;;;;;56.90;32.77;;;-1.10;83.20;;;;;;5019744;28;20200;-80
2021/03/10 07:24:02;;;;;;;58.43;32.43;;;-1.10;83.10;;;;;;5032580;28;20255;-80
2021/03/10 07:26:31;;;;;;;63.90;34.70;;;-1.20;83.20;;;;;;5017387;28;20227;-82
2021/03/10 07:29:03;;;;;;;57.80;33.87;;;-1.20;83.80;;;;;;5010458;28;20381;-82
2021/03/10 07:31:31;;;;;;;65.83;33.53;;;-1.00;84.00;;;;;;5013584;28;20206;-83
2021/03/10 07:34:01;;;;;;;59.37;32.53;;;-0.90;83.80;;;;;;5018938;28;20563;-83
2021/03/10 07:36:36;;;;;;;63.67;33.97;;;-0.90;83.10;;;;;;5020527;28;20204;-83
2021/03/10 07:39:07;;;;;;;60.43;33.53;;;-0.70;83.40;;;;;;5025439;28;20262;-81
2021/03/10 07:41:38;;;;;;;58.93;33.20;;;-0.80;83.50;;;;;;5031446;28;20192;-82
2021/03/10 07:44:20;;;;;;;61.37;34.60;;;-0.80;83.50;;;;;;5024549;28;20299;-82
2021/03/10 07:46:49;;;;;;;59.40;32.27;;;-0.70;83.50;;;;;;5014378;28;20281;-84
2021/03/10 07:49:22;;;;;;;63.40;34.23;;;-0.60;83.30;;;;;;5027965;28;20599;-83
2021/03/10 07:51:51;;;;;;;59.70;35.03;;;-0.50;83.00;;;;;;5025481;28;20449;-84
2021/03/10 07:54:25;;;;;;;59.87;33.13;;;-0.50;83.10;;;;;;5023781;28;20799;-84
2021/03/10 07:57:11;;;;;;;63.77;33.23;;;-0.40;82.60;;;;;;5020842;28;20207;-84
2021/03/10 07:59:52;;;;;;;51.30;31.20;;;-0.30;82.50;;;;;;5024143;28;20995;-83
2021/03/10 08:02:20;;;;;;;56.70;30.73;;;-0.20;82.40;;;;;;5028180;28;20202;-83
2021/03/10 08:04:59;;;;;;;59.07;30.87;;;-0.10;82.30;;;;;;5025688;28;20430;-83
2021/03/10 08:07:32;;;;;;;54.93;31.30;;;0.00;82.20;;;;;;5016009;28;20285;-83
2021/03/10 08:10:02;;;;;;;61.37;31.87;;;0.20;82.10;;;;;;5031396;28;20479;-85
2021/03/10 08:12:35;;;;;;;53.63;31.13;;;0.10;81.60;;;;;;5021797;28;20227;-83
2021/03/10 08:15:07;;;;;;;57.13;32.63;;;0.20;81.30;;;;;;4998780;28;20211;-81
2021/03/10 08:17:34;;;;;;;56.23;30.30;;;0.30;81.30;;;;;;5012138;28;20308;-81
2021/03/10 08:20:05;;;;;;;59.97;30.10;;;0.40;81.40;;;;;;5013512;28;20318;-82
2021/03/10 08:22:34;;;;;;;57.00;30.73;;;0.50;80.70;;;;;;5003682;28;20218;-84
2021/03/10 08:25:05;;;;;;;53.77;29.37;;;0.50;80.70;;;;;;5012001;28;20855;-86
2021/03/10 08:27:37;;;;;;;50.07;30.23;;;0.60;80.10;;;;;;5009898;28;20207;-82
2021/03/10 08:30:07;;;;;;;48.03;30.03;;;0.60;80.10;;;;;;5010168;28;21453;-83
2021/03/10 08:32:37;;;;;;;49.90;28.03;;;0.70;80.30;;;;;;5015809;28;20206;-84
2021/03/10 08:35:11;;;;;;;55.50;28.40;;;0.70;79.90;;;;;;5003565;28;20210;-85
2021/03/10 08:37:43;;;;;;;51.93;29.13;;;0.80;80.00;;;;;;5033553;28;20199;-83
2021/03/10 08:40:19;;;;;;;49.17;27.73;;;0.80;79.90;;;;;;5032995;28;20210;-85
2021/03/10 08:42:47;;;;;;;46.73;24.27;;;1.00;79.70;;;;;;5031658;28;20720;-84
2021/03/10 08:45:21;;;;;;;49.40;26.80;;;1.00;79.00;;;;;;5017302;28;20668;-84
2021/03/10 08:48:00;;;;;;;45.03;26.87;;;1.00;79.10;;;;;;5015778;28;20650;-83
2021/03/10 08:50:30;;;;;;;41.60;25.87;;;1.10;79.10;;;;;;5023296;28;20515;-84
2021/03/10 08:53:00;;;;;;;45.93;24.87;;;1.10;79.00;;;;;;5021738;28;20214;-81
2021/03/10 08:55:29;;;;;;;38.27;25.10;;;1.20;78.60;;;;;;5022164;28;20207;-82
2021/03/10 08:58:07;;;;;;;40.23;25.03;;;1.20;78.40;;;;;;5016692;28;20208;-85
2021/03/10 09:00:35;;;;;;;49.10;24.03;;;1.30;78.30;;;;;;5010953;28;20207;-82
2021/03/10 09:03:12;;;;;;;42.53;25.30;;;1.30;78.50;;;;;;5000737;28;20201;-83
2021/03/10 09:05:42;;;;;;;45.97;25.70;;;1.40;78.30;;;;;;5018979;28;20285;-84
2021/03/10 09:08:12;;;;;;;43.90;23.33;;;1.40;78.10;;;;;;5003567;28;20234;-82
2021/03/10 09:10:46;;;;;;;35.03;22.13;;;1.50;78.10;;;;;;5012442;28;20241;-84
2021/03/10 09:13:18;;;;;;;36.80;21.57;;;1.50;77.90;;;;;;5011113;28;21312;-83
2021/03/10 09:15:46;;;;;;;33.43;19.03;;;1.60;77.20;;;;;;4993328;28;20219;-85
2021/03/10 09:18:14;;;;;;;36.53;20.87;;;1.60;76.80;;;;;;5014888;28;20549;-83
2021/03/10 09:20:44;;;;;;;33.77;20.20;;;1.60;76.90;;;;;;5011168;28;20250;-83
2021/03/10 09:23:13;;;;;;;32.50;18.90;;;1.60;76.80;;;;;;5021043;28;20933;-84
2021/03/10 09:25:42;;;;;;;22.67;15.10;;;1.70;76.90;;;;;;5016341;28;20756;-84
2021/03/10 09:28:11;;;;;;;22.53;12.93;;;1.80;75.80;;;;;;5028851;28;20211;-82
2021/03/10 09:30:42;;;;;;;24.53;14.37;;;1.90;75.10;;;;;;5021122;28;20210;-84
2021/03/10 09:33:18;;;;;;;17.33;11.50;;;2.10;75.00;;;;;;5022023;28;21053;-83
2021/03/10 09:35:53;;;;;;;17.23;12.10;;;2.00;73.90;;;;;;5006694;28;20212;-85
2021/03/10 09:38:21;;;;;;;21.00;13.20;;;2.10;73.30;;;;;;5029150;28;20285;-83
2021/03/10 09:40:57;;;;;;;21.50;12.70;;;2.20;73.10;;;;;;5027247;28;20531;-84
2021/03/10 09:43:27;;;;;;;17.63;13.07;;;2.10;72.70;;;;;;5021513;28;20538;-81
2021/03/10 09:45:59;;;;;;;21.90;13.73;;;2.20;72.90;;;;;;5022066;28;20203;-83
2021/03/10 09:48:34;;;;;;;21.53;12.67;;;2.10;72.60;;;;;;5020400;28;20226;-83
2021/03/10 09:51:05;;;;;;;18.37;9.73;;;2.20;72.60;;;;;;5021423;28;20216;-82
2021/03/10 09:53:39;;;;;;;18.97;11.70;;;2.30;71.60;;;;;;5033827;28;20207;-82
2021/03/10 09:56:08;;;;;;;18.30;12.43;;;2.40;71.00;;;;;;5011961;28;20949;-81
2021/03/10 09:58:47;;;;;;;20.33;12.27;;;2.40;70.70;;;;;;5009520;28;21079;-83
2021/03/10 10:01:16;;;;;;;22.13;12.70;;;2.50;70.80;;;;;;5017234;28;20201;-82
2021/03/10 10:03:44;;;;;;;20.97;11.70;;;2.50;70.70;;;;;;5025367;28;21583;-83
2021/03/10 10:06:16;;;;;;;19.57;10.83;;;2.50;70.50;;;;;;5040496;28;20247;-84
2021/03/10 10:08:46;;;;;;;20.37;12.00;;;2.60;69.80;;;;;;5035050;28;20246;-83
2021/03/10 10:11:16;;;;;;;21.27;11.87;;;2.80;69.40;;;;;;5018091;28;20278;-83
2021/03/10 10:13:47;;;;;;;22.43;13.43;;;2.90;69.40;;;;;;5033744;28;20664;-84
2021/03/10 10:16:17;;;;;;;23.23;14.00;;;3.10;69.20;;;;;;5037101;28;20203;-84
2021/03/10 10:18:46;;;;;;;20.63;12.90;;;3.30;68.80;;;;;;5017398;28;20296;-81
2021/03/10 10:21:14;;;;;;;21.40;12.80;;;3.40;68.10;;;;;;5034350;28;20272;-83
2021/03/10 10:23:42;;;;;;;17.30;10.97;;;3.80;67.80;;;;;;5015812;28;20207;-82
2021/03/10 10:26:09;;;;;;;16.87;9.30;;;3.80;67.00;;;;;;5016215;28;20217;-83
2021/03/10 10:28:37;;;;;;;16.80;10.67;;;3.90;65.60;;;;;;5010497;28;20206;-83
2021/03/10 10:31:17;;;;;;;15.03;10.33;;;4.00;65.60;;;;;;5019186;28;20198;-84
2021/03/10 10:33:46;;;;;;;14.33;9.57;;;4.10;65.00;;;;;;5015344;28;20242;-83
2021/03/10 10:36:14;;;;;;;14.13;9.67;;;4.20;65.40;;;;;;5019997;28;20418;-83
2021/03/10 10:38:42;;;;;;;22.43;10.63;;;4.50;62.60;;;;;;5018162;28;20200;-84
2021/03/10 10:41:13;;;;;;;11.83;7.13;;;4.60;61.80;;;;;;5027903;28;20206;-84
2021/03/10 10:43:41;;;;;;;8.93;7.00;;;4.80;59.00;;;;;;5008458;28;20755;-82
2021/03/10 10:46:09;;;;;;;12.30;6.90;;;4.70;54.40;;;;;;5020475;28;20216;-83
2021/03/10 10:48:38;;;;;;;7.70;6.87;;;4.80;52.70;;;;;;5023885;28;20249;-82
2021/03/10 10:51:06;;;;;;;11.43;7.37;;;4.70;51.80;;;;;;5024038;28;20212;-83
2021/03/10 10:53:34;;;;;;;11.13;7.97;;;4.50;50.90;;;;;;5002531;28;20296;-86
2021/03/10 10:56:01;;;;;;;14.07;7.90;;;4.60;52.50;;;;;;5019315;28;20208;-82
2021/03/10 10:58:29;;;;;;;10.07;7.93;;;4.70;51.10;;;;;;5003836;28;20208;-84
2021/03/10 11:00:57;;;;;;;12.93;8.00;;;4.70;50.30;;;;;;5008975;28;21133;-81
2021/03/10 11:03:26;;;;;;;13.70;8.90;;;4.70;50.60;;;;;;5018981;28;20199;-82
2021/03/10 11:05:55;;;;;;;19.67;12.13;;;4.60;52.40;;;;;;5013694;28;20229;-82
2021/03/10 11:08:23;;;;;;;18.03;10.70;;;4.70;54.60;;;;;;5011156;28;20226;-83
2021/03/10 11:10:50;;;;;;;18.83;9.70;;;4.40;53.70;;;;;;5010850;28;20692;-84
2021/03/10 11:13:37;;;;;;;13.77;9.37;;;4.50;54.70;;;;;;5007498;28;20219;-83
2021/03/10 11:16:05;;;;;;;13.43;8.43;;;4.50;53.10;;;;;;5017070;28;20207;-85
2021/03/10 11:18:35;;;;;;;14.00;9.23;;;4.60;52.40;;;;;;5011732;28;20204;-84
2021/03/10 11:21:05;;;;;;;11.87;8.20;;;4.60;53.20;;;;;;5016785;28;20771;-84
2021/03/10 11:23:34;;;;;;;10.10;8.07;;;4.50;52.10;;;;;;5014277;28;20763;-82
2021/03/10 11:26:02;;;;;;;15.50;9.07;;;4.50;51.80;;;;;;5015573;28;20711;-85
2021/03/10 11:28:30;;;;;;;12.03;8.90;;;4.50;52.20;;;;;;5001859;28;20206;-84
2021/03/10 11:30:58;;;;;;;15.03;9.93;;;4.50;53.20;;;;;;5030270;28;20230;-84
2021/03/10 11:33:26;;;;;;;13.80;9.67;;;4.50;52.20;;;;;;5022120;28;20227;-84
2021/03/10 11:35:54;;;;;;;17.23;9.57;;;4.60;53.10;;;;;;5004618;28;20215;-84
2021/03/10 11:38:23;;;;;;;16.27;9.57;;;4.70;53.00;;;;;;5025423;28;20209;-84
2021/03/10 11:40:50;;;;;;;15.37;9.20;;;4.80;52.00;;;;;;5015728;28;20756;-86
2021/03/10 11:43:18;;;;;;;17.73;9.80;;;4.50;51.60;;;;;;5020956;28;21237;-82
2021/03/10 11:45:52;;;;;;;15.67;9.47;;;4.50;52.50;;;;;;5017442;28;20218;-84
2021/03/10 11:48:20;;;;;;;14.60;9.20;;;4.50;52.50;;;;;;5017719;28;20206;-84
2021/03/10 11:50:51;;;;;;;13.47;9.43;;;4.30;52.20;;;;;;5018983;28;20221;-83
2021/03/10 11:53:19;;;;;;;18.47;10.83;;;4.30;51.70;;;;;;4997522;28;20207;-83
2021/03/10 11:55:51;;;;;;;17.33;11.40;;;4.30;53.70;;;;;;5013270;28;20302;-85
2021/03/10 11:58:19;;;;;;;20.17;11.67;;;4.10;53.60;;;;;;5027930;28;20269;-84
2021/03/10 12:00:48;;;;;;;16.23;11.57;;;4.10;56.20;;;;;;5021996;28;20203;-84
2021/03/10 12:03:16;;;;;;;16.97;11.17;;;4.10;55.90;;;;;;5028569;28;20203;-83
2021/03/10 12:05:44;;;;;;;17.47;11.07;;;4.00;55.60;;;;;;5025707;28;20218;-84
2021/03/10 12:08:13;;;;;;;17.93;10.87;;;4.00;54.80;;;;;;5030160;28;20480;-84
2021/03/10 12:10:45;;;;;;;18.97;10.50;;;4.00;54.80;;;;;;5030850;28;20248;-85
2021/03/10 12:13:14;;;;;;;19.00;11.60;;;3.80;55.10;;;;;;5027250;28;20827;-84
2021/03/10 12:15:41;;;;;;;18.03;11.37;;;3.60;55.20;;;;;;5028324;28;20250;-82
2021/03/10 12:18:10;;;;;;;16.73;10.20;;;3.60;55.40;;;;;;5020714;28;20216;-85
2021/03/10 12:20:38;;;;;;;18.50;11.33;;;3.50;55.70;;;;;;5021310;28;20194;-85
2021/03/10 12:23:07;;;;;;;16.63;11.40;;;3.50;55.50;;;;;;5009547;28;20251;-84
2021/03/10 12:25:38;;;;;;;19.10;12.20;;;3.40;55.90;;;;;;5020976;28;20214;-86
2021/03/10 12:28:12;;;;;;;24.97;13.60;;;3.30;56.20;;;;;;5002173;28;20280;-83
2021/03/10 12:30:41;;;;;;;19.10;12.93;;;3.30;56.20;;;;;;5019132;28;20268;-81
2021/03/10 12:33:09;;;;;;;19.17;12.57;;;3.20;56.40;;;;;;5012108;28;20214;-84
2021/03/10 12:35:38;;;;;;;19.07;11.10;;;3.20;56.20;;;;;;4997549;28;20773;-84
2021/03/10 12:38:07;;;;;;;16.47;10.50;;;3.10;56.10;;;;;;5013216;28;20217;-84
2021/03/10 12:40:50;;;;;;;17.67;11.37;;;3.10;55.80;;;;;;5018793;28;20214;-85
2021/03/10 12:43:18;;;;;;;17.13;10.33;;;3.10;56.20;;;;;;5015616;28;20200;-84
2021/03/10 12:45:47;;;;;;;17.37;11.60;;;3.20;56.50;;;;;;5013926;28;20219;-81